x

Cape Cod - 24 Nm East Of Provincetown, Ma (44018) Wave Buoy

4:50pm - Fri 4th Sep 2015 All times are EDT. -4 hours from GMT.

  • Sig Wave height 3.6ft
  • Swell Direction
  • Peak Period 6s
  • Average Period 5s
  • Wind
    13mph, 18mph gusts
  • Sea Temp 66°f
  • Air Temp 67°f
  • Sea Pressure 1021.3mb
  • Cape Cod - 24 Nm East Of Provincetown, Ma
  • Cape Cod - 24 Nm East Of Provincetown, Ma

More Historic Weather Station data

Upgrade to MSW Pro to gain access to the past 30 days of data for over 8000 Wavebouys and Weather Stations around the globe.

Join Pro

Comparision Forecast

View Surf forecast
   
Fri 09/04 4:50pm 3.5ft 6s 5s 13 18 mph 1021.3mb 66f 67f
3:50pm 4ft 6s 5s 13 16 mph 1021.2mb 66f 67f
1:50pm 4.5ft 6s 5s 16 20 mph 1021mb 66f 67f
12:50pm 4.5ft 6s 5s 18 22 mph 1021mb 66f 67f
11:50am 4.5ft 6s 5s 18 20 mph 1020.6mb 67f 67f
10:50am 4.5ft 6s 5s 16 20 mph 1020.1mb 67f 67f
9:50am 4ft 6s 5s 18 20 mph 1019.2mb 67f 68f
8:50am 4ft 5s 4s 18 20 mph 1018.1mb 67f 69f
7:50am 3.5ft 4s 4s 20 22 mph 1017.6mb 67f 68f
6:50am 2.5ft 3s 3s 20 22 mph 1016.5mb 67f 69f
5:50am 1.6ft 8s 4s 16 18 mph 1015.2mb 67f 70f
4:50am 1.3ft 12s 5s 11
mph
1014.7mb 67f 70f
3:50am 1.3ft 11s 5s 11 13 mph 1014.3mb 67f 70f
2:50am 1ft 8s 6s 9 11 mph 1013.5mb 68f 70f
1:50am 1ft 11s 6s 4 7 mph 1013.3mb 69f 70f
12:50am 1ft 11s 6s 7
mph
1013.4mb 69f 70f
Thu 09/03 11:50pm 1ft 9s 6s 2 4 mph 1013.1mb 69f 70f
10:50pm 1ft 9s 6s  -  2 mph 1012.4mb 69f 70f
9:50pm 1ft 14s 6s 2
mph
1012.2mb 69f 70f
8:50pm 1ft 14s 6s 2
mph
1011.7mb 69f 70f
7:50pm 1ft 9s 6s  -  2 mph 1011.2mb 69f 70f
6:50pm 1ft 7s 6s  -  2 mph 1010.6mb 70f 71f
5:50pm 1ft 13s 6s  -  mph 1010.3mb 71f 72f
4:50pm 1.3ft 8s 6s 4
mph
1010.1mb 72f 72f
3:50pm 1ft 13s 6s 2
mph
1009.9mb 73f 72f
2:50pm 1ft 11s 6s 4
mph
1010.2mb 71f 71f
1:50pm 1ft 12s 5s 2
mph
1010.4mb 70f 70f
12:50pm 1ft 12s 5s 4
mph
1010.8mb 70f 70f
11:50am 1ft 9s 5s 4 7 mph 1010.8mb 69f 69f
10:50am 1ft 13s 5s 4 7 mph 1011.1mb 68f 69f
9:50am 1ft 14s 4s 4 7 mph 1011.1mb 68f 68f
8:50am 1ft 6s 4s 4 7 mph 1010.8mb 67f 68f
7:50am 1.3ft 14s 4s 7
mph
1010.5mb 68f 69f
6:50am 1.3ft 12s 4s 7 9 mph 1010.3mb 68f 68f
5:50am 1.3ft 14s 4s 7 9 mph 1009.8mb 68f 68f
4:50am 1.3ft 12s 4s 9 11 mph 1009.7mb 67f 69f
3:50am 1.3ft 13s 4s 9 11 mph 1009.8mb 67f 69f
2:50am 1.3ft 11s 4s 11 13 mph 1009.8mb 68f 69f
1:50am 1.3ft 8s 4s 9 11 mph 1010.2mb 67f 69f
12:50am 1.3ft 13s 4s 11
mph
1010.5mb 67f 69f
Wed 09/02 11:50pm 1.3ft 13s 4s 11 13 mph 1011mb 68f 69f
10:50pm 1.6ft 11s 3s 13
mph
1011.5mb 67f 70f
9:50pm 1.6ft 11s 4s 13 16 mph 1011.6mb 68f 70f
8:50pm 1.3ft 3s 4s 13 16 mph 1011.9mb 69f 71f
7:50pm 1.3ft 8s 4s 11 13 mph 1011.6mb 69f 71f
6:50pm 1.6ft 7s 4s 11
mph
1011.5mb 69f 70f
5:50pm 1.6ft 7s 5s 11
mph
1011.6mb 69f 70f
4:50pm 1.3ft 4s 5s 9 11 mph 1012.1mb 68f 70f
3:50pm 1.3ft 10s 5s 9 11 mph 1012.7mb 68f 70f
2:50pm 1.3ft 8s 5s 11
mph
1013mb 67f 70f
1:50pm 1.3ft 11s 4s 9 11 mph 1013.6mb 68f 69f
12:50pm 1.3ft 12s 4s 9
mph
1014.3mb 68f 69f
11:50am 1.3ft 9s 4s 11
mph
1014.9mb 68f 68f
10:50am 1.3ft 10s 4s 11 13 mph 1015.5mb 69f 68f
9:50am 1.6ft 14s 4s 13 16 mph 1015.6mb 69f 67f
8:50am 1.3ft 6s 4s 13 16 mph 1015.9mb 69f 68f
7:50am 1.3ft 10s 4s 13 16 mph 1016mb 69f 68f
6:50am 1.6ft 9s 5s 11 13 mph 1016.1mb 68f 67f
5:50am 1.6ft 7s 5s 11 13 mph 1016mb 68f 67f
4:50am 1.6ft 8s 6s 9 11 mph 1016.2mb 68f 67f
3:50am 1.6ft 9s 6s 9
mph
1016.2mb 68f 67f
2:50am 1.6ft 8s 5s 9
mph
1016.5mb 67f 66f
1:50am 1.6ft 8s 5s 7
mph
1017mb 67f 66f
12:50am 1.6ft 9s 5s 7 9 mph 1017.3mb 67f 66f
Tue 09/01 11:50pm 1.6ft 8s 5s 7 9 mph 1017.5mb 68f 67f
10:50pm 1.6ft 9s 5s 9
mph
1017.5mb 68f 67f
9:50pm 1.6ft 5s 5s 7 9 mph 1017.8mb 69f 68f
8:50pm 1.6ft 5s 5s 7 9 mph 1017.6mb 69f 68f
7:50pm 1.6ft 5s 5s 4
mph
1017.1mb 69f 68f
6:50pm 2ft 10s 5s 4 7 mph 1016.7mb 70f 69f
5:50pm 1.6ft 8s 5s 2
mph
1016.9mb 71f 70f
4:50pm 2ft 9s 5s 2 4 mph 1016.9mb 71f 70f
3:50pm 2ft 9s 5s 4
mph
1017mb 70f 70f
2:50pm 2ft 8s 4s 4 7 mph 1017.3mb 71f 70f
1:50pm 2ft 4s 4s 4 7 mph 1017.3mb 71f 70f
12:50pm 2.5ft 8s 4s 9 11 mph 1017.3mb 71f 70f
11:50am 2.5ft 4s 4s 9 11 mph 1017.2mb 70f 70f
10:50am 2ft 3s 4s 11 13 mph 1017.1mb 69f 70f
9:50am 2ft 9s 4s 13
mph
1016.8mb 69f 71f
8:50am 1.6ft 3s 4s 13 16 mph 1016.4mb 70f 71f
7:50am 1.6ft 9s 4s 13 16 mph 1016mb 71f 71f
6:50am 1.6ft 9s 5s 13 18 mph 1015.5mb 71f 72f
5:50am 1.6ft 10s 6s 9 11 mph 1014.9mb 71f 71f
4:50am 1.6ft 9s 6s 9 11 mph 1013.9mb 70f 71f
3:50am 1.6ft 9s 6s 7 9 mph 1013.9mb 67f 70f
2:50am 2ft 9s 5s 7 9 mph 1014mb 66f 69f
1:50am 1.6ft 8s 6s 7 9 mph 1013.8mb 65f 68f
12:50am 1.6ft 9s 6s 9 11 mph 1013.4mb 65f 68f
Mon 08/31 11:50pm 1.6ft 9s 6s 9 11 mph 1012.8mb 65f 69f
10:50pm 1.6ft 8s 5s 9 11 mph 1012.4mb 66f 69f
9:50pm 1.6ft 10s 5s 11 13 mph 1012.2mb 69f 71f